Portada
METAR-TAF:

METAR-TAF

Aeropuertos :

Tánger, Marruecos

Aeropuerto de Tánger

latitud: 35-44N, longitud: 005-54W, altitud: 19 m

Observación

El informe se hizo hace 26 minutos, a las 18:00 UTC
Viento 11 kt del este
Temperatura 26°C
Humedad 54%
Presión 1016 hPa
Visibilidad: 8000 m
Escasas nubes a una altura de 1600 ft

METAR: GMTT 231800Z 08011KT 8000 FEW016 26/16 Q1016 NOSIG

Hora: 19:26 (18:26 UTC)

Pronóstico

El informe se hizo hace 1 hora y 26 minutos, a las 17:00 UTC
Pronóstico válido del 23 a las 18 UTC al 24 a las 24 UTC
Viento 16 kt del este
Visibilidad 10 km o más
Escasas nubes a una altura de 1600 ft

TAF: GMTT 231700Z 2318/2424 10016KT 9999 FEW016

Observaciones y pronósticos meteorológicos de más de 4000 aeropuertos (mensajes METAR y TAF).

Los puntos amarillos y rojos representan las estaciones disponibles.

Ponga el ratón en el punto deseado para ver el nombre de la estación.

Haga clic para ver las observaciones y los pronósticos meteorológicos.

Para cambiar el mapa : haga clic en los botones verdes con una cruz de color negro para hacer un zoom, en el botón verde con un guión para alejar o en las flechas verdes para mapas adyacentes.


METAR-TAF: